Time;durP1;ratioP1;P1;durP2;ratioP2;P2;SDS_P1;SDS_P2;PMS_P1;PMS_P2;Temp;Humidity;BMP_temperature;BMP_pressure;BME280_temperature;BME280_humidity;BME280_pressure;Samples;Min_cycle;Max_cycle;Signal;HPM_P1;HPM_P2
2022/12/11 00:02:42;;;;;;;54.37;18.23;;;;;;;;;;6235508;28;20032;-78
2022/12/11 00:05:43;;;;;;;55.87;22.83;;;;;;;;;;6239462;28;20021;-78
2022/12/11 00:08:44;;;;;;;59.20;22.13;;;;;;;;;;6240244;28;20377;-78
2022/12/11 00:11:44;;;;;;;43.10;18.47;;;;;;;;;;6234254;28;20244;-77
2022/12/11 00:14:44;;;;;;;53.97;20.73;;;;;;;;;;6233951;28;20505;-78
2022/12/11 00:17:44;;;;;;;62.07;18.87;;;;;;;;;;6246788;28;20305;-78
2022/12/11 00:20:45;;;;;;;50.77;17.03;;;;;;;;;;6242374;28;20010;-78
2022/12/11 00:23:45;;;;;;;47.73;17.27;;;;;;;;;;6237896;28;20022;-78
2022/12/11 00:26:45;;;;;;;56.07;19.90;;;;;;;;;;6236918;28;20017;-78
2022/12/11 00:29:45;;;;;;;54.40;18.13;;;;;;;;;;6239062;28;20037;-78
2022/12/11 00:32:46;;;;;;;54.93;20.93;;;;;;;;;;6237917;28;20020;-78
2022/12/11 00:35:46;;;;;;;52.57;19.70;;;;;;;;;;6239701;28;20052;-78
2022/12/11 00:38:47;;;;;;;51.57;20.57;;;;;;;;;;6237014;28;20055;-78
2022/12/11 00:41:48;;;;;;;55.27;20.30;;;;;;;;;;6238852;28;20381;-78
2022/12/11 00:44:48;;;;;;;51.23;18.77;;;;;;;;;;6232257;28;20021;-77
2022/12/11 00:47:48;;;;;;;54.90;20.47;;;;;;;;;;6236239;28;20083;-77
2022/12/11 00:50:48;;;;;;;56.20;21.63;;;;;;;;;;6234124;28;20075;-77
2022/12/11 00:53:48;;;;;;;46.55;17.45;;;;;;;;;;6238285;28;20017;-77
2022/12/11 00:56:49;;;;;;;47.87;18.67;;;;;;;;;;6234227;28;20141;-77
2022/12/11 00:59:49;;;;;;;26.70;12.20;;;;;;;;;;6237597;28;20013;-78
2022/12/11 01:02:50;;;;;;;55.40;18.10;;;;;;;;;;6237575;28;20026;-78
2022/12/11 01:05:53;;;;;;;63.23;21.83;;;;;;;;;;6237197;28;20227;-78
2022/12/11 01:12:12;;;;;;;46.25;17.55;;;;;;;;;;6239895;28;20033;-78
2022/12/11 01:15:13;;;;;;;38.65;15.13;;;;;;;;;;6229577;28;20045;-78
2022/12/11 01:18:14;;;;;;;57.00;18.97;;;;;;;;;;6240705;28;20018;-78
2022/12/11 01:21:14;;;;;;;50.97;17.47;;;;;;;;;;6232821;28;20025;-78
2022/12/11 01:24:14;;;;;;;46.57;15.87;;;;;;;;;;6237769;28;20025;-78
2022/12/11 01:27:14;;;;;;;52.53;15.83;;;;;;;;;;6238134;28;20628;-78
2022/12/11 01:30:14;;;;;;;46.27;14.00;;;;;;;;;;6235418;28;20424;-78
2022/12/11 01:33:15;;;;;;;47.03;15.67;;;;;;;;;;6239224;28;20143;-78
2022/12/11 01:36:18;;;;;;;50.88;14.35;;;;;;;;;;6240939;28;20025;-78
2022/12/11 01:39:18;;;;;;;49.78;15.60;;;;;;;;;;6243866;28;20017;-78
2022/12/11 01:42:19;;;;;;;52.50;18.60;;;;;;;;;;6243778;28;20083;-78
2022/12/11 01:45:27;;;;;;;45.97;16.63;;;;;;;;;;6243177;28;20014;-78
2022/12/11 01:48:28;;;;;;;38.78;16.38;;;;;;;;;;6238995;28;20653;-78
2022/12/11 01:51:30;;;;;;;46.05;15.77;;;;;;;;;;6238896;28;20100;-78
2022/12/11 01:54:30;;;;;;;45.88;15.90;;;;;;;;;;6237252;28;20021;-78
2022/12/11 01:57:31;;;;;;;40.03;14.83;;;;;;;;;;6242011;28;20133;-78
2022/12/11 02:00:31;;;;;;;55.57;16.47;;;;;;;;;;6238523;28;20060;-78
2022/12/11 02:03:31;;;;;;;48.70;16.70;;;;;;;;;;6240271;28;20267;-78
2022/12/11 02:06:42;;;;;;;46.87;14.43;;;;;;;;;;6241863;28;20041;-78
2022/12/11 02:09:44;;;;;;;42.47;14.85;;;;;;;;;;6245602;28;20048;-78
2022/12/11 02:12:59;;;;;;;46.60;14.98;;;;;;;;;;6238100;28;20013;-78
2022/12/11 02:16:04;;;;;;;46.35;15.82;;;;;;;;;;6235253;28;20051;-78
2022/12/11 02:19:20;;;;;;;47.53;15.93;;;;;;;;;;6234889;28;20022;-78
2022/12/11 02:22:40;;;;;;;45.17;16.20;;;;;;;;;;6236305;28;20083;-78
2022/12/11 02:25:41;;;;;;;39.63;15.23;;;;;;;;;;6224962;28;20549;-78
2022/12/11 02:28:44;;;;;;;46.45;15.50;;;;;;;;;;6238270;28;20017;-78
2022/12/11 02:31:46;;;;;;;44.67;14.98;;;;;;;;;;6239013;28;20024;-78
2022/12/11 02:34:54;;;;;;;38.95;15.32;;;;;;;;;;6224206;28;20436;-78
2022/12/11 02:38:18;;;;;;;42.60;14.75;;;;;;;;;;6246114;28;20079;-78
2022/12/11 02:41:19;;;;;;;42.22;13.43;;;;;;;;;;6248197;28;20033;-78
2022/12/11 02:44:22;;;;;;;32.95;11.32;;;;;;;;;;6231512;28;20109;-78
2022/12/11 02:47:25;;;;;;;46.30;13.18;;;;;;;;;;6236777;28;20157;-78
2022/12/11 02:50:26;;;;;;;39.53;13.25;;;;;;;;;;6241163;28;21638;-78
2022/12/11 02:53:28;;;;;;;40.05;16.13;;;;;;;;;;6228081;28;20018;-78
2022/12/11 02:56:32;;;;;;;39.08;12.82;;;;;;;;;;6238944;28;20563;-79
2022/12/11 02:59:37;;;;;;;36.90;13.60;;;;;;;;;;6228069;28;20490;-79
2022/12/11 03:02:37;;;;;;;46.50;14.40;;;;;;;;;;6238024;28;20037;-79
2022/12/11 03:05:38;;;;;;;31.10;11.10;;;;;;;;;;6240076;28;20021;-79
2022/12/11 03:08:38;;;;;;;49.87;19.83;;;;;;;;;;6242058;28;20477;-79
2022/12/11 03:11:39;;;;;;;40.90;13.90;;;;;;;;;;6242341;28;20045;-79
2022/12/11 03:14:40;;;;;;;32.40;11.18;;;;;;;;;;6236818;28;20021;-79
2022/12/11 03:17:59;;;;;;;42.75;13.30;;;;;;;;;;6244674;28;20055;-79
2022/12/11 03:21:03;;;;;;;29.65;11.45;;;;;;;;;;6240283;28;20052;-80
2022/12/11 03:24:06;;;;;;;43.53;15.23;;;;;;;;;;6241494;28;20033;-80
2022/12/11 03:27:14;;;;;;;33.17;12.05;;;;;;;;;;6241498;28;20109;-80
2022/12/11 03:30:16;;;;;;;32.70;9.82;;;;;;;;;;6242681;28;20414;-80
2022/12/11 03:33:22;;;;;;;30.52;11.45;;;;;;;;;;6234337;28;20095;-80
2022/12/11 03:36:27;;;;;;;31.80;11.10;;;;;;;;;;6242665;28;20029;-80
2022/12/11 03:39:30;;;;;;;43.45;12.55;;;;;;;;;;6240218;28;20021;-80
2022/12/11 03:42:31;;;;;;;41.65;13.43;;;;;;;;;;6240131;28;20214;-81
2022/12/11 03:45:32;;;;;;;41.67;15.57;;;;;;;;;;6240657;28;20096;-80
2022/12/11 03:48:34;;;;;;;36.83;13.20;;;;;;;;;;6241326;28;20009;-80
2022/12/11 03:51:34;;;;;;;52.75;15.43;;;;;;;;;;6239785;28;20028;-80
2022/12/11 03:54:35;;;;;;;37.07;13.73;;;;;;;;;;6237297;28;20022;-80
2022/12/11 03:57:36;;;;;;;50.23;16.07;;;;;;;;;;6239486;28;20042;-80
2022/12/11 04:00:37;;;;;;;41.20;12.63;;;;;;;;;;6245517;28;20432;-80
2022/12/11 04:03:37;;;;;;;40.23;12.97;;;;;;;;;;6230013;28;20092;-80
2022/12/11 04:06:38;;;;;;;47.37;12.33;;;;;;;;;;6241196;28;20025;-80
2022/12/11 04:09:38;;;;;;;43.00;15.07;;;;;;;;;;6240015;28;20068;-80
2022/12/11 04:12:38;;;;;;;42.73;14.07;;;;;;;;;;6241267;28;20068;-80
2022/12/11 04:15:39;;;;;;;49.13;15.67;;;;;;;;;;6242364;28;20017;-80
2022/12/11 04:25:17;;;;;;;35.70;12.23;;;;;;;;;;6243002;28;20017;-80
2022/12/11 04:28:17;;;;;;;45.50;14.07;;;;;;;;;;6240393;28;20095;-80
2022/12/11 04:31:19;;;;;;;37.87;13.17;;;;;;;;;;6236720;28;20049;-80
2022/12/11 04:34:19;;;;;;;41.75;16.55;;;;;;;;;;6242497;28;20009;-80
2022/12/11 04:37:19;;;;;;;48.70;16.17;;;;;;;;;;6238119;28;20017;-80
2022/12/11 04:40:20;;;;;;;43.07;13.77;;;;;;;;;;6240135;28;20029;-81
2022/12/11 04:43:20;;;;;;;47.50;15.97;;;;;;;;;;6237743;28;20035;-80
2022/12/11 04:46:22;;;;;;;42.60;13.73;;;;;;;;;;6240637;28;20318;-80
2022/12/11 04:49:22;;;;;;;53.58;15.75;;;;;;;;;;6239427;28;20022;-81
2022/12/11 04:52:22;;;;;;;45.00;13.77;;;;;;;;;;6239255;28;20026;-80
2022/12/11 04:55:23;;;;;;;47.10;17.17;;;;;;;;;;6237478;28;20088;-80
2022/12/11 04:58:24;;;;;;;52.47;18.63;;;;;;;;;;6241810;28;20063;-80
2022/12/11 05:01:24;;;;;;;57.73;19.90;;;;;;;;;;6239416;28;20079;-81
2022/12/11 05:04:24;;;;;;;56.47;19.33;;;;;;;;;;6240542;28;20021;-81
2022/12/11 05:07:25;;;;;;;47.57;18.67;;;;;;;;;;6231248;28;20532;-81
2022/12/11 05:10:25;;;;;;;48.73;19.30;;;;;;;;;;6234488;28;20441;-81
2022/12/11 05:13:26;;;;;;;38.50;15.70;;;;;;;;;;6244131;28;20109;-81
2022/12/11 05:16:27;;;;;;;49.40;19.23;;;;;;;;;;6242383;28;20367;-81
2022/12/11 05:19:27;;;;;;;43.03;17.07;;;;;;;;;;6245136;28;20018;-81
2022/12/11 05:22:29;;;;;;;47.70;17.77;;;;;;;;;;6241950;28;20021;-81
2022/12/11 05:25:29;;;;;;;45.58;19.88;;;;;;;;;;6246873;28;20005;-81
2022/12/11 05:28:30;;;;;;;48.47;19.40;;;;;;;;;;6245756;28;20443;-81
2022/12/11 05:31:31;;;;;;;42.97;17.77;;;;;;;;;;6245680;28;20325;-81
2022/12/11 05:34:31;;;;;;;45.10;19.10;;;;;;;;;;6238315;28;20028;-82
2022/12/11 05:37:33;;;;;;;46.23;18.60;;;;;;;;;;6230993;28;20044;-81
2022/12/11 05:40:33;;;;;;;47.40;19.67;;;;;;;;;;6240431;28;20068;-81
2022/12/11 05:43:35;;;;;;;48.07;19.17;;;;;;;;;;6243475;28;20298;-81
2022/12/11 05:46:35;;;;;;;44.78;20.00;;;;;;;;;;6243032;28;20014;-81
2022/12/11 05:49:35;;;;;;;45.87;16.93;;;;;;;;;;6242639;28;20013;-81
2022/12/11 05:52:35;;;;;;;41.83;16.87;;;;;;;;;;6237543;28;20072;-81
2022/12/11 05:55:36;;;;;;;39.60;16.50;;;;;;;;;;6240676;28;20009;-81
2022/12/11 05:58:37;;;;;;;38.50;18.10;;;;;;;;;;6242788;28;20045;-81
2022/12/11 06:01:41;;;;;;;46.00;18.15;;;;;;;;;;6244122;28;20163;-81
2022/12/11 06:04:41;;;;;;;42.55;20.10;;;;;;;;;;6243256;28;20385;-81
2022/12/11 06:07:42;;;;;;;44.75;17.92;;;;;;;;;;6238125;28;20021;-81
2022/12/11 06:10:45;;;;;;;39.63;17.87;;;;;;;;;;6232909;28;20052;-81
2022/12/11 06:13:46;;;;;;;41.58;20.48;;;;;;;;;;6231089;28;20029;-81
2022/12/11 06:16:46;;;;;;;42.23;19.03;;;;;;;;;;6240753;28;20021;-82
2022/12/11 06:19:46;;;;;;;41.83;19.70;;;;;;;;;;6230721;28;20536;-82
2022/12/11 06:22:46;;;;;;;38.90;17.67;;;;;;;;;;6242066;28;20402;-82
2022/12/11 06:25:46;;;;;;;46.23;16.70;;;;;;;;;;6245062;28;20511;-82
2022/12/11 06:28:47;;;;;;;35.07;16.87;;;;;;;;;;6243519;28;20013;-82
2022/12/11 06:31:47;;;;;;;30.57;14.23;;;;;;;;;;6238718;28;20377;-82
2022/12/11 06:34:48;;;;;;;45.27;17.63;;;;;;;;;;6229817;28;20431;-82
2022/12/11 06:37:48;;;;;;;39.03;17.07;;;;;;;;;;6229761;28;20342;-82
2022/12/11 06:41:07;;;;;;;40.03;19.30;;;;;;;;;;6234844;28;20041;-83
2022/12/11 06:44:07;;;;;;;39.13;16.73;;;;;;;;;;6243656;28;20016;-82
2022/12/11 06:47:08;;;;;;;46.50;20.57;;;;;;;;;;6239220;28;20021;-83
2022/12/11 06:50:08;;;;;;;40.93;18.50;;;;;;;;;;6241519;28;20194;-83
2022/12/11 06:53:09;;;;;;;40.57;18.23;;;;;;;;;;6240589;28;20083;-82
2022/12/11 06:56:11;;;;;;;47.93;19.90;;;;;;;;;;6241383;28;20455;-82
2022/12/11 06:59:12;;;;;;;44.83;19.17;;;;;;;;;;6237572;28;20160;-82
2022/12/11 07:02:13;;;;;;;42.50;20.50;;;;;;;;;;6238523;28;20380;-83
2022/12/11 07:05:13;;;;;;;52.97;23.95;;;;;;;;;;6237587;28;20060;-83
2022/12/11 07:08:14;;;;;;;41.77;18.23;;;;;;;;;;6231306;28;20083;-83
2022/12/11 07:11:16;;;;;;;34.37;14.97;;;;;;;;;;6237352;28;20029;-83
2022/12/11 07:14:16;;;;;;;31.52;15.70;;;;;;;;;;6231460;28;20453;-83
2022/12/11 07:17:16;;;;;;;46.43;19.80;;;;;;;;;;6241051;28;20100;-83
2022/12/11 07:20:17;;;;;;;41.47;17.00;;;;;;;;;;6237097;28;20018;-83
2022/12/11 07:23:17;;;;;;;46.00;20.40;;;;;;;;;;6230224;28;20024;-83
2022/12/11 07:26:19;;;;;;;55.20;22.10;;;;;;;;;;6236027;28;20014;-83
2022/12/11 07:29:19;;;;;;;48.80;21.00;;;;;;;;;;6236603;28;20025;-83
2022/12/11 07:32:19;;;;;;;39.03;20.37;;;;;;;;;;6237694;28;20017;-83
2022/12/11 07:35:19;;;;;;;41.23;20.47;;;;;;;;;;6230477;28;20045;-83
2022/12/11 07:38:20;;;;;;;40.37;18.30;;;;;;;;;;6241140;28;20061;-83
2022/12/11 07:41:20;;;;;;;36.83;17.33;;;;;;;;;;6233366;28;20025;-83
2022/12/11 07:44:20;;;;;;;42.00;18.97;;;;;;;;;;6239385;28;20308;-83
2022/12/11 07:47:21;;;;;;;38.40;16.63;;;;;;;;;;6237692;28;20067;-83
2022/12/11 07:50:21;;;;;;;40.20;20.03;;;;;;;;;;6232456;28;20528;-83
2022/12/11 07:53:21;;;;;;;36.27;14.93;;;;;;;;;;6248903;28;20048;-83
2022/12/11 07:56:22;;;;;;;42.70;17.30;;;;;;;;;;6246655;28;20056;-84
2022/12/11 07:59:22;;;;;;;36.83;16.73;;;;;;;;;;6240899;28;20041;-83
2022/12/11 08:02:22;;;;;;;43.43;18.03;;;;;;;;;;6237140;28;20096;-83
2022/12/11 08:05:23;;;;;;;38.83;19.13;;;;;;;;;;6241523;28;20058;-83
2022/12/11 08:08:23;;;;;;;35.33;18.27;;;;;;;;;;6241744;28;20028;-84
2022/12/11 08:11:24;;;;;;;45.13;19.02;;;;;;;;;;6237122;28;20014;-84
2022/12/11 08:14:24;;;;;;;43.67;19.63;;;;;;;;;;6229529;28;20504;-83
2022/12/11 08:17:25;;;;;;;41.90;20.53;;;;;;;;;;6242703;28;20028;-83
2022/12/11 08:20:25;;;;;;;42.60;19.80;;;;;;;;;;6249918;28;20037;-84
2022/12/11 08:23:25;;;;;;;41.13;19.63;;;;;;;;;;6249130;28;20263;-84
2022/12/11 08:26:27;;;;;;;39.07;18.00;;;;;;;;;;6249686;28;20033;-83
2022/12/11 08:29:28;;;;;;;44.72;20.67;;;;;;;;;;6247009;28;20048;-83
2022/12/11 08:32:28;;;;;;;35.77;18.23;;;;;;;;;;6249544;28;20077;-83
2022/12/11 08:35:28;;;;;;;39.50;16.83;;;;;;;;;;6241394;28;20052;-83
2022/12/11 08:38:29;;;;;;;38.33;18.03;;;;;;;;;;6241432;28;20010;-83
2022/12/11 08:41:30;;;;;;;35.87;19.77;;;;;;;;;;6238842;28;20120;-83
2022/12/11 08:44:31;;;;;;;38.10;18.65;;;;;;;;;;6237448;28;20067;-83
2022/12/11 08:47:31;;;;;;;38.47;18.77;;;;;;;;;;6237830;28;20022;-82
2022/12/11 08:50:31;;;;;;;42.90;20.90;;;;;;;;;;6235917;28;20026;-83
2022/12/11 08:53:32;;;;;;;37.50;18.43;;;;;;;;;;6245724;28;20072;-83
2022/12/11 08:56:32;;;;;;;39.23;17.30;;;;;;;;;;6250817;28;20541;-82
2022/12/11 08:59:32;;;;;;;41.20;18.40;;;;;;;;;;6248317;28;20049;-83
2022/12/11 09:02:32;;;;;;;37.77;19.93;;;;;;;;;;6233623;28;20030;-82
2022/12/11 09:05:33;;;;;;;39.23;22.03;;;;;;;;;;6224969;28;20022;-82
2022/12/11 09:08:33;;;;;;;40.03;19.50;;;;;;;;;;6229360;28;20033;-83
2022/12/11 09:11:35;;;;;;;38.87;20.87;;;;;;;;;;6232380;28;20017;-83
2022/12/11 09:14:35;;;;;;;;;;;;;;;;;;6234945;28;20103;-82
2022/12/11 09:17:36;;;;;;;49.17;25.13;;;;;;;;;;6238839;28;19996;-83
2022/12/11 09:20:37;;;;;;;47.40;22.53;;;;;;;;;;6242916;28;20127;-83
2022/12/11 09:23:39;;;;;;;43.55;21.83;;;;;;;;;;6236130;28;20022;-84
2022/12/11 09:26:40;;;;;;;48.40;23.25;;;;;;;;;;6232751;28;20347;-82
2022/12/11 09:29:40;;;;;;;51.13;22.90;;;;;;;;;;6242087;28;20018;-83
2022/12/11 09:32:40;;;;;;;40.43;19.93;;;;;;;;;;6244992;28;20052;-82
2022/12/11 09:35:41;;;;;;;36.80;17.77;;;;;;;;;;6244471;28;20013;-83
2022/12/11 09:38:44;;;;;;;31.43;16.43;;;;;;;;;;6240245;28;20087;-83
2022/12/11 09:42:03;;;;;;;35.40;16.70;;;;;;;;;;6242908;28;20480;-83
2022/12/11 09:45:05;;;;;;;38.78;16.92;;;;;;;;;;6245655;28;20037;-82
2022/12/11 09:48:07;;;;;;;35.00;16.60;;;;;;;;;;6243571;28;20012;-83
2022/12/11 09:51:13;;;;;;;32.70;17.95;;;;;;;;;;6243661;28;20028;-83
2022/12/11 09:54:14;;;;;;;38.28;19.63;;;;;;;;;;6245201;28;20061;-82
2022/12/11 09:57:28;;;;;;;34.97;16.43;;;;;;;;;;6246015;28;20400;-84
2022/12/11 10:00:32;;;;;;;29.08;15.50;;;;;;;;;;6245684;28;20025;-83
2022/12/11 10:03:42;;;;;;;35.35;17.42;;;;;;;;;;6248708;28;20048;-82
2022/12/11 10:06:47;;;;;;;32.22;16.25;;;;;;;;;;6246935;28;20301;-82
2022/12/11 10:09:47;;;;;;;28.55;13.95;;;;;;;;;;6241042;28;20045;-82
2022/12/11 10:12:48;;;;;;;31.97;16.60;;;;;;;;;;6237012;28;20087;-82
2022/12/11 10:15:52;;;;;;;27.27;13.37;;;;;;;;;;6236282;28;20014;-82
2022/12/11 10:18:52;;;;;;;28.65;12.43;;;;;;;;;;6248021;28;20028;-83
2022/12/11 10:21:53;;;;;;;41.80;18.47;;;;;;;;;;6247286;28;20017;-82
2022/12/11 10:24:54;;;;;;;30.27;17.47;;;;;;;;;;6233756;28;20021;-81
2022/12/11 10:27:54;;;;;;;34.20;16.30;;;;;;;;;;6240891;28;20033;-81
2022/12/11 10:31:04;;;;;;;26.93;14.23;;;;;;;;;;6238213;28;20080;-81
2022/12/11 10:34:10;;;;;;;38.85;15.98;;;;;;;;;;6252833;28;20040;-81
2022/12/11 10:37:10;;;;;;;46.00;17.55;;;;;;;;;;6233684;28;20250;-81
2022/12/11 10:40:11;;;;;;;30.33;13.97;;;;;;;;;;6243580;28;20026;-81
2022/12/11 10:43:11;;;;;;;40.50;15.73;;;;;;;;;;6242600;28;20021;-81
2022/12/11 10:46:14;;;;;;;25.13;11.60;;;;;;;;;;6244287;28;20048;-81
2022/12/11 10:49:22;;;;;;;22.33;10.95;;;;;;;;;;6244245;28;20022;-80
2022/12/11 10:52:24;;;;;;;29.13;15.25;;;;;;;;;;6244010;28;20347;-81
2022/12/11 10:55:27;;;;;;;31.20;15.85;;;;;;;;;;6243754;28;20241;-80
2022/12/11 10:58:30;;;;;;;25.23;11.65;;;;;;;;;;6237844;28;20464;-80
2022/12/11 11:01:31;;;;;;;28.60;13.70;;;;;;;;;;6235489;28;20059;-80
2022/12/11 11:04:36;;;;;;;26.00;13.20;;;;;;;;;;6236484;28;20021;-80
2022/12/11 11:07:37;;;;;;;29.35;15.35;;;;;;;;;;6238787;28;20045;-80
2022/12/11 11:10:37;;;;;;;26.53;14.37;;;;;;;;;;6244199;28;20032;-79
2022/12/11 11:13:37;;;;;;;32.77;16.37;;;;;;;;;;6242124;28;20017;-79
2022/12/11 11:16:38;;;;;;;31.07;13.47;;;;;;;;;;6243726;28;20082;-79
2022/12/11 11:19:38;;;;;;;30.23;14.10;;;;;;;;;;6243533;28;20505;-79
2022/12/11 11:22:41;;;;;;;22.57;11.27;;;;;;;;;;6241966;28;20044;-79
2022/12/11 11:25:53;;;;;;;25.08;12.68;;;;;;;;;;6249535;28;20088;-79
2022/12/11 11:28:55;;;;;;;27.23;13.05;;;;;;;;;;6255477;28;20116;-79
2022/12/11 11:31:55;;;;;;;;;;;;;;;;;;6256679;28;20492;-79
2022/12/11 11:35:04;;;;;;;24.20;11.23;;;;;;;;;;6238904;28;20364;-79
2022/12/11 11:38:14;;;;;;;22.95;11.00;;;;;;;;;;6240721;28;20020;-78
2022/12/11 11:41:27;;;;;;;25.90;12.95;;;;;;;;;;6256927;28;20582;-79
2022/12/11 11:44:33;;;;;;;31.13;16.15;;;;;;;;;;6229466;28;20044;-78
2022/12/11 11:47:35;;;;;;;30.55;14.57;;;;;;;;;;6234959;28;20049;-79
2022/12/11 11:50:38;;;;;;;28.15;15.10;;;;;;;;;;6237787;28;20020;-77
2022/12/11 11:53:40;;;;;;;26.60;13.52;;;;;;;;;;6234619;28;20693;-78
2022/12/11 11:56:40;;;;;;;32.85;16.48;;;;;;;;;;6240580;28;20010;-77
2022/12/11 11:59:53;;;;;;;29.00;13.60;;;;;;;;;;6235673;28;20125;-77
2022/12/11 12:02:56;;;;;;;38.05;17.60;;;;;;;;;;6221615;28;20036;-78
2022/12/11 12:06:03;;;;;;;36.30;17.63;;;;;;;;;;6241212;28;20025;-77
2022/12/11 12:09:12;;;;;;;45.15;22.23;;;;;;;;;;6242039;28;20017;-77
2022/12/11 12:12:12;;;;;;;36.05;17.15;;;;;;;;;;6239521;28;20029;-77
2022/12/11 12:15:25;;;;;;;36.40;17.17;;;;;;;;;;6237326;28;20018;-77
2022/12/11 12:18:29;;;;;;;33.78;16.80;;;;;;;;;;6234446;28;20109;-77
2022/12/11 12:21:32;;;;;;;34.45;16.58;;;;;;;;;;6230373;28;20048;-78
2022/12/11 12:24:35;;;;;;;43.70;20.17;;;;;;;;;;6225013;28;20029;-78
2022/12/11 12:27:41;;;;;;;34.25;17.85;;;;;;;;;;6236034;28;20457;-78
2022/12/11 12:30:48;;;;;;;41.47;19.13;;;;;;;;;;6240358;28;20580;-78
2022/12/11 12:33:51;;;;;;;34.60;16.58;;;;;;;;;;6236374;28;20022;-77
2022/12/11 12:37:10;;;;;;;34.78;16.95;;;;;;;;;;6236585;28;20084;-77
2022/12/11 12:40:25;;;;;;;35.92;17.50;;;;;;;;;;6236282;28;20529;-77
2022/12/11 12:43:44;;;;;;;42.17;19.83;;;;;;;;;;6231482;28;20018;-77
2022/12/11 12:46:56;;;;;;;34.42;16.15;;;;;;;;;;6235186;28;20112;-77
2022/12/11 12:49:58;;;;;;;39.83;19.88;;;;;;;;;;6235645;28;20014;-78
2022/12/11 12:52:59;;;;;;;33.80;17.17;;;;;;;;;;6258301;28;20035;-78
2022/12/11 12:56:00;;;;;;;45.53;21.43;;;;;;;;;;6245186;28;20018;-76
2022/12/11 12:59:00;;;;;;;37.75;19.77;;;;;;;;;;6236989;28;20176;-77
2022/12/11 13:02:01;;;;;;;40.53;18.70;;;;;;;;;;6240306;28;20018;-77
2022/12/11 13:05:06;;;;;;;38.28;18.15;;;;;;;;;;6241876;28;20010;-77
2022/12/11 13:08:06;;;;;;;40.75;20.50;;;;;;;;;;6254045;28;20051;-78
2022/12/11 13:11:11;;;;;;;49.97;24.03;;;;;;;;;;6239985;28;20469;-76
2022/12/11 13:14:14;;;;;;;47.58;21.13;;;;;;;;;;6233010;28;20021;-76
2022/12/11 13:17:20;;;;;;;36.97;20.00;;;;;;;;;;6240378;28;20029;-76
2022/12/11 13:20:22;;;;;;;38.20;17.75;;;;;;;;;;6236793;28;20026;-77
2022/12/11 13:23:27;;;;;;;39.35;18.55;;;;;;;;;;6239088;28;20020;-78
2022/12/11 13:26:29;;;;;;;39.20;17.83;;;;;;;;;;6240962;28;20015;-76
2022/12/11 13:29:34;;;;;;;37.17;17.77;;;;;;;;;;6234650;28;20017;-76
2022/12/11 13:32:35;;;;;;;37.08;17.85;;;;;;;;;;6236982;28;20020;-76
2022/12/11 13:35:35;;;;;;;40.27;20.27;;;;;;;;;;6240352;28;20396;-76
2022/12/11 13:38:37;;;;;;;36.47;17.83;;;;;;;;;;6233377;28;20540;-76
2022/12/11 13:41:37;;;;;;;;;;;;;;;;;;6242793;28;20032;-76
2022/12/11 13:44:39;;;;;;;37.40;18.73;;;;;;;;;;6241164;28;20142;-77
2022/12/11 13:47:39;;;;;;;34.63;16.83;;;;;;;;;;6234757;28;20257;-76
2022/12/11 13:50:42;;;;;;;33.30;15.63;;;;;;;;;;6234020;28;20294;-76
2022/12/11 13:53:42;;;;;;;34.10;18.02;;;;;;;;;;6226737;28;20064;-76
2022/12/11 13:57:00;;;;;;;42.47;20.07;;;;;;;;;;6227268;28;20030;-76
2022/12/11 14:00:01;;;;;;;39.67;19.63;;;;;;;;;;6233401;28;20056;-76
2022/12/11 14:03:06;;;;;;;40.90;22.23;;;;;;;;;;6236552;28;20026;-77
2022/12/11 14:06:11;;;;;;;34.70;17.77;;;;;;;;;;6238504;28;20057;-76
2022/12/11 14:09:15;;;;;;;31.35;16.60;;;;;;;;;;6234800;28;20211;-76
2022/12/11 14:12:17;;;;;;;32.20;15.45;;;;;;;;;;6239856;28;20116;-77
2022/12/11 14:15:17;;;;;;;33.05;15.65;;;;;;;;;;6237859;28;20241;-76
2022/12/11 14:18:27;;;;;;;35.50;16.60;;;;;;;;;;6245894;28;20389;-77
2022/12/11 14:21:27;;;;;;;31.15;16.85;;;;;;;;;;6229491;28;20441;-77
2022/12/11 14:24:28;;;;;;;34.78;16.95;;;;;;;;;;6237905;28;20051;-76
2022/12/11 14:27:29;;;;;;;40.47;18.77;;;;;;;;;;6238175;28;20205;-77
2022/12/11 14:30:31;;;;;;;42.60;22.17;;;;;;;;;;6233153;28;20028;-76
2022/12/11 14:33:37;;;;;;;41.78;21.70;;;;;;;;;;6229736;28;20014;-77
2022/12/11 14:36:38;;;;;;;47.05;21.63;;;;;;;;;;6236861;28;20075;-77
2022/12/11 14:39:58;;;;;;;41.40;19.98;;;;;;;;;;6235875;28;20017;-77
2022/12/11 14:43:01;;;;;;;38.67;17.23;;;;;;;;;;6236289;28;20178;-77
2022/12/11 14:46:04;;;;;;;33.05;15.88;;;;;;;;;;6234344;28;20440;-77
2022/12/11 14:49:25;;;;;;;39.92;20.42;;;;;;;;;;6236606;28;20124;-77
2022/12/11 14:52:37;;;;;;;40.47;19.48;;;;;;;;;;6230243;28;20097;-77
2022/12/11 14:55:38;;;;;;;38.45;18.88;;;;;;;;;;6224738;28;20041;-77
2022/12/11 14:58:54;;;;;;;36.20;18.92;;;;;;;;;;6241577;28;20080;-77
2022/12/11 15:02:02;;;;;;;36.03;19.67;;;;;;;;;;6232575;28;20032;-77
2022/12/11 15:05:14;;;;;;;35.67;19.77;;;;;;;;;;6239076;28;20014;-77
2022/12/11 15:08:23;;;;;;;33.92;16.50;;;;;;;;;;6236032;28;20037;-78
2022/12/11 15:11:29;;;;;;;35.67;18.25;;;;;;;;;;6234743;28;20369;-78
2022/12/11 15:14:29;;;;;;;30.67;15.63;;;;;;;;;;6234408;28;20101;-78
2022/12/11 15:17:29;;;;;;;36.20;17.97;;;;;;;;;;6234376;28;20030;-79
2022/12/11 15:20:30;;;;;;;38.63;18.50;;;;;;;;;;6242065;28;20074;-78
2022/12/11 15:23:30;;;;;;;41.57;19.67;;;;;;;;;;6235315;28;20020;-78
2022/12/11 15:26:34;;;;;;;45.27;21.40;;;;;;;;;;6235931;28;20025;-79
2022/12/11 15:29:36;;;;;;;48.95;21.48;;;;;;;;;;6238155;28;20020;-79
2022/12/11 15:32:37;;;;;;;48.17;21.90;;;;;;;;;;6240063;28;20112;-79
2022/12/11 15:35:38;;;;;;;41.60;22.23;;;;;;;;;;6233464;28;20024;-79
2022/12/11 15:38:40;;;;;;;46.97;23.58;;;;;;;;;;6236257;28;20052;-79
2022/12/11 15:41:41;;;;;;;50.58;26.75;;;;;;;;;;6235262;28;20112;-80
2022/12/11 15:44:41;;;;;;;58.50;26.27;;;;;;;;;;6234052;28;20013;-79
2022/12/11 15:47:41;;;;;;;62.57;30.57;;;;;;;;;;6240828;28;20033;-79
2022/12/11 15:50:42;;;;;;;49.93;26.20;;;;;;;;;;6241300;28;20013;-80
2022/12/11 15:53:42;;;;;;;56.07;26.40;;;;;;;;;;6239781;28;20040;-80
2022/12/11 15:56:42;;;;;;;53.13;26.53;;;;;;;;;;6242274;28;20018;-80
2022/12/11 15:59:44;;;;;;;51.40;24.73;;;;;;;;;;6242269;28;20052;-80
2022/12/11 16:02:45;;;;;;;56.83;27.75;;;;;;;;;;6240267;28;20031;-81
2022/12/11 16:05:45;;;;;;;52.57;27.20;;;;;;;;;;6240878;28;20420;-80
2022/12/11 16:08:45;;;;;;;51.37;24.13;;;;;;;;;;6237563;28;20017;-81
2022/12/11 16:11:46;;;;;;;50.20;25.63;;;;;;;;;;6243307;28;20100;-80
2022/12/11 16:14:46;;;;;;;44.00;22.40;;;;;;;;;;6236696;28;20401;-81
2022/12/11 16:17:46;;;;;;;40.53;20.73;;;;;;;;;;6244120;28;20048;-79
2022/12/11 16:20:47;;;;;;;48.80;22.60;;;;;;;;;;6242384;28;20082;-80
2022/12/11 16:23:47;;;;;;;44.53;23.23;;;;;;;;;;6236208;28;20508;-80
2022/12/11 16:26:47;;;;;;;41.63;22.87;;;;;;;;;;6240186;28;20044;-80
2022/12/11 16:29:48;;;;;;;40.93;21.40;;;;;;;;;;6243240;28;20017;-81
2022/12/11 16:32:48;;;;;;;32.67;19.53;;;;;;;;;;6234486;28;20312;-80
2022/12/11 16:35:49;;;;;;;38.37;19.33;;;;;;;;;;6238126;28;20148;-80
2022/12/11 16:38:49;;;;;;;36.43;20.60;;;;;;;;;;6230129;28;20001;-80
2022/12/11 16:41:49;;;;;;;35.07;19.97;;;;;;;;;;6242547;28;20112;-80
2022/12/11 16:44:49;;;;;;;39.50;19.70;;;;;;;;;;6241357;28;20108;-80
2022/12/11 16:47:50;;;;;;;28.33;14.43;;;;;;;;;;6247959;28;20800;-80
2022/12/11 16:50:53;;;;;;;36.60;18.97;;;;;;;;;;6240050;28;20083;-79
2022/12/11 16:53:53;;;;;;;40.05;18.85;;;;;;;;;;6242344;28;20025;-80
2022/12/11 16:56:53;;;;;;;32.10;17.90;;;;;;;;;;6231231;28;20072;-80
2022/12/11 16:59:54;;;;;;;35.97;16.70;;;;;;;;;;6243985;28;20088;-81
2022/12/11 17:02:54;;;;;;;36.72;17.40;;;;;;;;;;6248915;28;20087;-80
2022/12/11 17:05:54;;;;;;;33.07;16.50;;;;;;;;;;6246233;28;20105;-79
2022/12/11 17:08:55;;;;;;;37.70;18.40;;;;;;;;;;6250417;28;20021;-80
2022/12/11 17:11:55;;;;;;;34.47;17.07;;;;;;;;;;6244554;28;20021;-79
2022/12/11 17:14:56;;;;;;;33.57;18.47;;;;;;;;;;6243318;28;20071;-79
2022/12/11 17:17:56;;;;;;;35.27;17.20;;;;;;;;;;6243222;28;20463;-78
2022/12/11 17:20:56;;;;;;;33.57;17.83;;;;;;;;;;6237888;28;20028;-77
2022/12/11 17:23:56;;;;;;;31.10;16.50;;;;;;;;;;6242778;28;20025;-78
2022/12/11 17:26:58;;;;;;;40.10;20.20;;;;;;;;;;6243842;28;20025;-78
2022/12/11 17:29:58;;;;;;;;;;;;;;;;;;6241817;28;20013;-77
2022/12/11 17:32:58;;;;;;;42.53;22.15;;;;;;;;;;6254833;28;19905;-78
2022/12/11 17:35:59;;;;;;;45.43;21.70;;;;;;;;;;6241157;28;20509;-78
2022/12/11 17:39:00;;;;;;;47.03;23.15;;;;;;;;;;6241719;28;20112;-78
2022/12/11 17:42:00;;;;;;;58.03;25.73;;;;;;;;;;6241814;28;20013;-79
2022/12/11 17:45:01;;;;;;;47.77;24.47;;;;;;;;;;6242385;28;20162;-78
2022/12/11 17:48:01;;;;;;;51.10;24.53;;;;;;;;;;6236944;28;20051;-79
2022/12/11 17:51:02;;;;;;;46.17;25.20;;;;;;;;;;6241482;28;20432;-79
2022/12/11 17:54:03;;;;;;;66.28;31.77;;;;;;;;;;6243126;28;20041;-78